KOJC/OJC METAR and TAF weather

Enter ICAO airport designator
Station Type Date Time Source
KOJC METAR 2022/08/12 13:53 UTC NOAA

KOJC 121353Z 14004KT 10SM CLR 24/19 A3017 RMK AO2 SLP204 T02390194


Station Type Date Time Source
KOJC Decoded METAR 2022/08/12 13:53 UTC NOAA

OLATHE JOHNSON CO EXECUTIVE, KS, United States (KOJC) 38-50N 94-44W 326M
Aug 12, 2022 - 09:53 AM EDT / 2022.08.12 1353 UTC
Wind: from the SE (140 degrees) at 5 MPH (4 KT):0
Visibility: 10 mile(s):0
Sky conditions: clear
Temperature: 75.0 F (23.9 C)
Dew Point: 66.9 F (19.4 C)
Relative Humidity: 75%
Pressure (altimeter): 30.17 in. Hg (1021 hPa)
ob: KOJC 121353Z 14004KT 10SM CLR 24/19 A3017 RMK AO2 SLP204 T02390194
cycle: 14

Station Type Date Time Source
KOJC TAF UTC NOAA

Error!

Example: see airport list